Time;durP1;ratioP1;P1;durP2;ratioP2;P2;SDS_P1;SDS_P2;PMS_P1;PMS_P2;Temp;Humidity;BMP_temperature;BMP_pressure;BME280_temperature;BME280_humidity;BME280_pressure;Samples;Min_cycle;Max_cycle;Signal;HPM_P1;HPM_P2
2023/07/20 00:00:29;;;;;;;4.38;1.85;;;16.00;99.90;;;;;;5019084;28;20041;-73
2023/07/20 00:03:16;;;;;;;5.03;2.10;;;16.00;99.90;;;;;;5035651;28;20041;-73
2023/07/20 00:05:44;;;;;;;3.83;2.55;;;16.00;99.90;;;;;;5035657;28;20124;-73
2023/07/20 00:08:09;;;;;;;4.28;1.95;;;16.00;99.90;;;;;;5035541;28;20041;-73
2023/07/20 00:10:35;;;;;;;3.58;2.00;;;16.00;99.90;;;;;;5035750;28;20051;-74
2023/07/20 00:13:00;;;;;;;6.60;2.50;;;16.00;99.90;;;;;;5035763;28;20041;-74
2023/07/20 00:15:26;;;;;;;3.85;3.00;;;16.00;99.90;;;;;;5035476;28;20563;-74
2023/07/20 00:17:52;;;;;;;3.25;2.22;;;16.00;99.90;;;;;;5035402;28;20053;-73
2023/07/20 00:20:17;;;;;;;2.80;2.30;;;16.00;99.90;;;;;;5035231;28;20041;-73
2023/07/20 00:22:43;;;;;;;2.50;2.30;;;16.00;99.90;;;;;;5035599;28;20044;-73
2023/07/20 00:25:11;;;;;;;3.67;2.85;;;16.00;99.90;;;;;;5035281;28;20037;-73
2023/07/20 00:27:37;;;;;;;3.55;2.60;;;16.00;99.90;;;;;;5035226;28;20041;-73
2023/07/20 00:30:04;;;;;;;6.13;2.80;;;16.00;99.90;;;;;;5036423;28;20048;-73
2023/07/20 00:32:30;;;;;;;3.30;2.83;;;16.00;99.90;;;;;;5035195;28;20103;-73
2023/07/20 00:34:55;;;;;;;4.35;2.70;;;15.90;99.90;;;;;;5035098;28;20045;-73
2023/07/20 00:37:21;;;;;;;5.65;2.83;;;15.90;99.90;;;;;;5035062;28;20128;-73
2023/07/20 00:39:46;;;;;;;3.67;2.70;;;15.90;99.90;;;;;;5035075;28;20037;-73
2023/07/20 00:42:12;;;;;;;6.90;2.97;;;15.90;99.90;;;;;;5035010;28;20518;-73
2023/07/20 00:44:38;;;;;;;3.85;2.65;;;15.90;99.90;;;;;;5018651;28;20124;-73
2023/07/20 00:47:05;;;;;;;4.65;2.90;;;15.90;99.90;;;;;;5018447;28;20049;-73
2023/07/20 00:49:31;;;;;;;4.65;2.70;;;15.90;99.90;;;;;;5034595;28;20045;-73
2023/07/20 00:51:57;;;;;;;4.18;3.17;;;15.90;99.90;;;;;;5034776;28;20517;-73
2023/07/20 00:54:24;;;;;;;3.88;3.22;;;15.90;99.90;;;;;;5035068;28;20132;-73
2023/07/20 00:56:52;;;;;;;4.00;3.25;;;15.80;99.90;;;;;;5034698;28;20124;-73
2023/07/20 00:59:18;;;;;;;3.72;3.13;;;15.80;99.90;;;;;;5018022;28;20414;-73
2023/07/20 01:01:43;;;;;;;5.15;3.65;;;15.90;99.90;;;;;;5034509;28;20041;-73
2023/07/20 01:04:09;;;;;;;3.90;3.45;;;15.80;99.90;;;;;;5034727;28;20029;-73
2023/07/20 01:06:53;;;;;;;4.70;3.47;;;15.80;99.90;;;;;;5034575;28;20079;-73
2023/07/20 01:09:27;;;;;;;3.83;3.30;;;15.90;99.90;;;;;;5017880;28;20048;-73
2023/07/20 01:12:17;;;;;;;5.82;3.22;;;15.80;99.90;;;;;;5034483;28;20095;-73
2023/07/20 01:14:43;;;;;;;6.35;3.40;;;15.80;99.90;;;;;;5034443;28;20044;-73
2023/07/20 01:17:08;;;;;;;5.22;3.60;;;15.70;99.90;;;;;;5034387;28;20033;-73
2023/07/20 01:19:34;;;;;;;4.63;3.20;;;15.60;99.90;;;;;;5034127;28;20041;-73
2023/07/20 01:22:20;;;;;;;7.55;3.53;;;15.70;99.90;;;;;;5034212;28;20041;-73
2023/07/20 01:25:05;;;;;;;7.75;3.90;;;15.60;99.90;;;;;;5034249;28;20041;-73
2023/07/20 01:28:02;;;;;;;5.40;3.60;;;15.60;99.90;;;;;;5034460;28;20049;-73
2023/07/20 01:30:52;;;;;;;7.28;4.15;;;15.50;99.90;;;;;;5034291;28;20049;-73
2023/07/20 01:33:20;;;;;;;4.30;3.47;;;15.50;99.90;;;;;;5034035;28;20387;-73
2023/07/20 01:35:52;;;;;;;6.03;3.38;;;15.40;99.90;;;;;;5034023;28;20037;-73
2023/07/20 01:38:19;;;;;;;4.95;4.15;;;15.40;99.90;;;;;;5017475;28;20107;-73
2023/07/20 01:40:45;;;;;;;3.97;3.60;;;15.30;99.90;;;;;;5033780;28;20041;-73
2023/07/20 01:43:12;;;;;;;5.85;3.80;;;15.30;99.90;;;;;;5017344;28;20144;-73
2023/07/20 01:45:37;;;;;;;3.85;3.25;;;15.20;99.90;;;;;;5033805;28;20441;-73
2023/07/20 01:48:03;;;;;;;6.53;3.65;;;15.20;99.90;;;;;;5033690;28;20037;-73
2023/07/20 01:50:29;;;;;;;6.13;3.95;;;15.10;99.90;;;;;;5033531;28;20042;-73
2023/07/20 01:52:55;;;;;;;6.88;3.63;;;15.10;99.90;;;;;;5033657;28;20075;-73
2023/07/20 01:55:20;;;;;;;7.68;3.92;;;15.00;99.90;;;;;;5035122;28;20048;-73
2023/07/20 01:57:46;;;;;;;7.13;4.10;;;15.00;99.90;;;;;;5033566;28;20045;-73
2023/07/20 02:00:12;;;;;;;4.90;4.15;;;14.90;99.90;;;;;;5033378;28;20116;-73
2023/07/20 02:02:37;;;;;;;5.70;4.07;;;14.80;99.90;;;;;;5033442;28;20037;-73
2023/07/20 02:05:03;;;;;;;5.80;4.03;;;14.80;99.90;;;;;;5033412;28;20037;-73
2023/07/20 02:07:29;;;;;;;4.03;3.55;;;14.80;99.90;;;;;;5033409;28;20030;-73
2023/07/20 02:09:54;;;;;;;4.80;4.30;;;14.80;99.90;;;;;;5033296;28;20081;-73
2023/07/20 02:12:20;;;;;;;5.00;3.88;;;14.70;99.90;;;;;;5033272;28;20045;-73
2023/07/20 02:14:45;;;;;;;5.00;4.45;;;14.60;99.90;;;;;;5032935;28;20124;-73
2023/07/20 02:17:11;;;;;;;4.70;4.25;;;14.60;99.90;;;;;;5033261;28;20413;-73
2023/07/20 02:19:37;;;;;;;5.95;4.28;;;14.60;99.90;;;;;;5032985;28;20126;-73
2023/07/20 02:22:02;;;;;;;7.53;4.80;;;14.50;99.90;;;;;;5033079;28;20033;-73
2023/07/20 02:24:28;;;;;;;4.97;4.47;;;14.50;99.90;;;;;;5033337;28;20136;-73
2023/07/20 02:26:54;;;;;;;7.22;4.53;;;14.50;99.90;;;;;;5016841;28;20124;-73
2023/07/20 02:29:19;;;;;;;6.03;4.35;;;14.40;99.90;;;;;;5032901;28;20526;-73
2023/07/20 02:31:45;;;;;;;5.15;4.18;;;14.40;99.90;;;;;;5033170;28;20045;-73
2023/07/20 02:34:10;;;;;;;5.43;4.60;;;14.40;99.90;;;;;;5032869;28;20128;-73
2023/07/20 02:36:36;;;;;;;6.03;4.28;;;14.40;99.90;;;;;;5032776;28;20096;-73
2023/07/20 02:39:03;;;;;;;4.35;3.58;;;14.30;99.90;;;;;;5032916;28;20037;-73
2023/07/20 02:41:33;;;;;;;9.07;3.90;;;14.30;99.90;;;;;;5032649;28;20520;-73
2023/07/20 02:43:59;;;;;;;4.85;3.40;;;14.30;99.90;;;;;;5032712;28;20029;-73
2023/07/20 02:46:24;;;;;;;5.00;3.22;;;14.20;99.90;;;;;;5032629;28;20037;-73
2023/07/20 02:48:50;;;;;;;4.05;3.65;;;14.20;99.90;;;;;;5032660;28;20053;-73
2023/07/20 02:51:16;;;;;;;6.78;3.85;;;14.10;99.90;;;;;;5032823;28;20120;-73
2023/07/20 02:53:41;;;;;;;5.70;3.75;;;14.10;99.90;;;;;;5032498;28;20450;-73
2023/07/20 02:56:07;;;;;;;4.47;3.30;;;14.10;99.90;;;;;;5032741;28;20044;-73
2023/07/20 02:58:36;;;;;;;3.83;3.35;;;14.10;99.90;;;;;;5032335;28;20046;-73
2023/07/20 03:01:02;;;;;;;3.70;3.30;;;14.00;99.90;;;;;;5032301;28;20133;-73
2023/07/20 03:03:28;;;;;;;4.38;3.00;;;14.00;99.90;;;;;;5032353;28;20498;-73
2023/07/20 03:05:55;;;;;;;4.38;3.83;;;13.90;99.90;;;;;;5032310;28;20124;-73
2023/07/20 03:08:22;;;;;;;3.35;2.95;;;13.90;99.90;;;;;;5032213;28;20056;-73
2023/07/20 03:10:47;;;;;;;5.20;3.33;;;13.90;99.90;;;;;;5032249;28;20044;-73
2023/07/20 03:13:13;;;;;;;4.82;3.70;;;13.80;99.90;;;;;;5032482;28;20045;-73
2023/07/20 03:15:39;;;;;;;4.75;3.10;;;13.80;99.90;;;;;;5032142;28;20045;-73
2023/07/20 03:18:05;;;;;;;6.85;3.45;;;13.80;99.90;;;;;;5015958;28;20067;-73
2023/07/20 03:20:31;;;;;;;3.47;3.05;;;13.70;99.90;;;;;;5031980;28;20109;-73
2023/07/20 03:22:57;;;;;;;7.18;3.55;;;13.70;99.90;;;;;;5032060;28;20124;-73
2023/07/20 03:25:22;;;;;;;7.93;3.47;;;13.60;99.90;;;;;;5032289;28;20084;-73
2023/07/20 03:27:48;;;;;;;4.30;2.80;;;13.60;99.90;;;;;;5031103;28;20041;-73
2023/07/20 03:30:14;;;;;;;4.70;3.20;;;13.50;99.90;;;;;;5032132;28;20064;-73
2023/07/20 03:32:39;;;;;;;6.22;3.97;;;13.50;99.90;;;;;;5031919;28;20395;-73
2023/07/20 03:35:05;;;;;;;4.55;3.30;;;13.50;99.90;;;;;;5015493;28;20064;-73
2023/07/20 03:37:31;;;;;;;4.68;3.42;;;13.40;99.90;;;;;;5032102;28;20045;-73
2023/07/20 03:39:57;;;;;;;11.85;2.63;;;13.50;99.90;;;;;;5031690;28;20509;-73
2023/07/20 03:42:23;;;;;;;2.90;2.70;;;13.40;99.90;;;;;;5031851;28;20048;-73
2023/07/20 03:44:48;;;;;;;3.60;3.30;;;13.30;99.90;;;;;;5031772;28;20046;-73
2023/07/20 03:47:14;;;;;;;6.10;3.95;;;13.30;99.90;;;;;;5031780;28;20039;-73
2023/07/20 03:49:40;;;;;;;3.95;3.13;;;13.30;99.90;;;;;;5031510;28;20037;-73
2023/07/20 03:52:05;;;;;;;4.07;3.65;;;13.30;99.90;;;;;;5032043;28;20042;-73
2023/07/20 03:54:31;;;;;;;6.72;4.18;;;13.30;99.90;;;;;;5031946;28;20471;-73
2023/07/20 03:56:57;;;;;;;4.40;3.80;;;13.30;99.90;;;;;;5031631;28;20506;-73
2023/07/20 03:59:23;;;;;;;5.57;3.92;;;13.30;99.90;;;;;;5031847;28;20037;-73
2023/07/20 04:01:48;;;;;;;6.22;3.83;;;13.30;99.90;;;;;;5015088;28;20482;-73
2023/07/20 04:04:16;;;;;;;5.10;3.83;;;13.30;99.90;;;;;;5031888;28;20034;-73
2023/07/20 04:06:44;;;;;;;5.80;3.45;;;13.30;99.90;;;;;;5031867;28;20045;-73
2023/07/20 04:09:11;;;;;;;6.50;3.22;;;13.30;99.90;;;;;;5031525;28;20037;-73
2023/07/20 04:11:36;;;;;;;5.68;3.28;;;13.30;99.90;;;;;;5031573;28;20128;-73
2023/07/20 04:14:02;;;;;;;4.72;3.33;;;13.30;99.90;;;;;;5031530;28;20076;-73
2023/07/20 04:16:27;;;;;;;4.40;2.92;;;13.30;99.90;;;;;;5031773;28;20128;-73
2023/07/20 04:18:56;;;;;;;3.53;2.95;;;13.30;99.90;;;;;;5031445;28;20490;-73
2023/07/20 04:21:21;;;;;;;4.95;3.17;;;13.30;99.90;;;;;;5031424;28;20053;-72
2023/07/20 04:23:47;;;;;;;4.07;3.35;;;13.30;99.90;;;;;;5031720;28;20048;-73
2023/07/20 04:26:14;;;;;;;4.20;3.38;;;13.30;99.90;;;;;;5031710;28;20045;-73
2023/07/20 04:28:42;;;;;;;5.13;3.70;;;13.30;99.90;;;;;;5031361;28;20053;-73
2023/07/20 04:31:15;;;;;;;6.45;3.60;;;13.30;99.90;;;;;;5031687;28;20046;-73
2023/07/20 04:33:40;;;;;;;3.88;3.47;;;13.40;99.90;;;;;;5031707;28;20071;-73
2023/07/20 04:36:06;;;;;;;4.18;3.22;;;13.40;99.90;;;;;;5031655;28;20494;-73
2023/07/20 04:38:31;;;;;;;4.88;3.42;;;13.30;99.90;;;;;;5032927;28;20512;-73
2023/07/20 04:40:57;;;;;;;5.65;3.30;;;13.30;99.90;;;;;;5018492;28;20050;-73
2023/07/20 04:43:23;;;;;;;4.10;3.00;;;13.30;99.90;;;;;;5035286;28;20126;-73
2023/07/20 04:45:48;;;;;;;6.20;3.88;;;13.40;99.90;;;;;;5034989;28;20391;-73
2023/07/20 04:48:16;;;;;;;4.43;3.67;;;13.30;99.90;;;;;;5035222;28;20037;-73
2023/07/20 04:50:42;;;;;;;7.25;3.90;;;13.40;99.90;;;;;;5035027;28;20585;-73
2023/07/20 04:53:17;;;;;;;4.43;3.20;;;13.50;99.90;;;;;;5034839;28;20087;-74
2023/07/20 04:55:51;;;;;;;4.32;3.28;;;13.50;99.90;;;;;;5018407;28;20090;-73
2023/07/20 04:58:18;;;;;;;5.75;3.78;;;13.60;99.90;;;;;;5034710;28;20052;-73
2023/07/20 05:00:44;;;;;;;4.47;3.38;;;13.60;99.90;;;;;;5034614;28;20098;-73
2023/07/20 05:03:10;;;;;;;6.20;3.47;;;13.60;99.90;;;;;;5034921;28;20045;-73
2023/07/20 05:05:35;;;;;;;5.68;3.50;;;13.70;99.90;;;;;;5034563;28;20033;-73
2023/07/20 05:08:01;;;;;;;6.57;3.28;;;13.70;99.90;;;;;;5018120;28;20048;-73
2023/07/20 05:10:27;;;;;;;3.83;2.92;;;13.80;99.90;;;;;;5034683;28;20041;-73
2023/07/20 05:12:52;;;;;;;3.95;3.45;;;13.80;99.90;;;;;;5034451;28;20044;-73
2023/07/20 05:15:18;;;;;;;6.95;3.55;;;13.90;99.90;;;;;;5034348;28;20039;-73
2023/07/20 05:17:44;;;;;;;3.63;3.08;;;13.90;99.90;;;;;;5034301;28;20045;-73
2023/07/20 05:20:10;;;;;;;7.00;3.03;;;13.90;99.90;;;;;;5017822;28;20080;-73
2023/07/20 05:22:39;;;;;;;5.22;3.20;;;14.00;99.90;;;;;;5034471;28;20141;-73
2023/07/20 05:25:09;;;;;;;3.90;3.10;;;14.00;99.90;;;;;;5034453;28;20462;-73
2023/07/20 05:27:39;;;;;;;4.38;2.88;;;14.00;99.90;;;;;;5017891;28;20501;-73
2023/07/20 05:30:06;;;;;;;4.22;2.75;;;14.10;99.90;;;;;;5034268;28;20033;-73
2023/07/20 05:32:32;;;;;;;5.78;2.70;;;14.10;99.90;;;;;;5034242;28;20052;-73
2023/07/20 05:34:58;;;;;;;5.03;2.60;;;14.20;99.90;;;;;;5034238;28;20038;-73
2023/07/20 05:37:24;;;;;;;4.00;2.28;;;14.20;99.90;;;;;;5033974;28;20510;-73
2023/07/20 05:39:50;;;;;;;4.55;2.38;;;14.30;99.90;;;;;;5034210;28;20056;-72
2023/07/20 05:42:15;;;;;;;4.32;2.25;;;14.30;99.90;;;;;;5033971;28;20052;-72
2023/07/20 05:44:41;;;;;;;3.58;2.22;;;14.40;99.90;;;;;;5033979;28;20045;-72
2023/07/20 05:47:07;;;;;;;5.57;2.13;;;14.50;99.90;;;;;;5033878;28;20048;-72
2023/07/20 05:49:33;;;;;;;4.97;2.10;;;14.50;99.90;;;;;;5032748;28;20042;-72
2023/07/20 05:52:00;;;;;;;2.92;2.00;;;14.50;99.90;;;;;;5034018;28;20060;-72
2023/07/20 05:54:27;;;;;;;3.55;1.73;;;14.60;99.90;;;;;;5033688;28;20041;-72
2023/07/20 05:56:52;;;;;;;4.35;2.10;;;14.70;99.90;;;;;;5033637;28;20049;-72
2023/07/20 05:59:19;;;;;;;7.28;2.38;;;14.70;99.90;;;;;;5033566;28;20048;-73
2023/07/20 06:01:46;;;;;;;3.42;1.80;;;14.80;99.90;;;;;;5033513;28;20041;-73
2023/07/20 06:04:12;;;;;;;5.65;1.80;;;14.90;99.90;;;;;;5033488;28;20189;-73
2023/07/20 06:06:38;;;;;;;4.65;2.05;;;14.90;99.90;;;;;;5033478;28;20065;-73
2023/07/20 06:09:07;;;;;;;4.75;1.77;;;15.00;99.90;;;;;;5033406;28;20046;-72
2023/07/20 06:11:33;;;;;;;6.10;2.00;;;15.10;99.90;;;;;;5017155;28;20059;-72
2023/07/20 06:13:58;;;;;;;3.42;1.55;;;15.10;99.90;;;;;;5033345;28;20490;-73
2023/07/20 06:16:24;;;;;;;3.58;1.45;;;15.20;99.90;;;;;;5033329;28;20056;-73
2023/07/20 06:18:49;;;;;;;4.93;1.42;;;15.20;99.90;;;;;;5033154;28;20041;-72
2023/07/20 06:21:15;;;;;;;4.85;1.80;;;15.20;99.90;;;;;;5033258;28;20052;-72
2023/07/20 06:23:41;;;;;;;4.78;1.58;;;15.30;99.90;;;;;;5033517;28;20041;-72
2023/07/20 06:26:07;;;;;;;6.50;1.70;;;15.40;99.90;;;;;;5033714;28;20045;-72
2023/07/20 06:28:33;;;;;;;3.47;1.50;;;15.40;99.90;;;;;;5033343;28;20041;-72
2023/07/20 06:31:02;;;;;;;3.30;1.92;;;15.50;99.90;;;;;;5033563;28;20045;-72
2023/07/20 06:33:28;;;;;;;4.03;1.30;;;15.60;99.90;;;;;;5033192;28;20566;-72
2023/07/20 06:35:54;;;;;;;5.72;1.70;;;15.70;99.90;;;;;;5016801;28;20045;-72
2023/07/20 06:38:20;;;;;;;3.63;1.38;;;15.70;99.90;;;;;;5032775;28;20057;-72
2023/07/20 06:40:49;;;;;;;3.03;1.00;;;15.80;99.90;;;;;;5032652;28;20041;-72
2023/07/20 06:43:15;;;;;;;2.78;0.98;;;15.90;99.90;;;;;;5032637;28;20042;-72
2023/07/20 06:45:41;;;;;;;4.15;1.10;;;16.00;99.90;;;;;;5032695;28;20577;-72
2023/07/20 06:48:07;;;;;;;3.83;0.90;;;16.10;99.90;;;;;;5032922;28;20083;-72
2023/07/20 06:50:33;;;;;;;6.97;1.02;;;16.10;99.90;;;;;;5032430;28;20452;-72
2023/07/20 06:52:59;;;;;;;3.47;0.80;;;16.20;99.90;;;;;;5032851;28;20081;-72
2023/07/20 06:55:25;;;;;;;5.38;0.90;;;16.20;99.90;;;;;;5032542;28;20045;-72
2023/07/20 06:57:51;;;;;;;5.82;1.30;;;16.30;99.90;;;;;;5032779;28;20053;-73
2023/07/20 07:00:17;;;;;;;3.75;0.80;;;16.30;99.90;;;;;;5032315;28;20410;-72
2023/07/20 07:02:43;;;;;;;3.80;0.93;;;16.40;99.90;;;;;;5032524;28;20136;-73
2023/07/20 07:05:09;;;;;;;4.68;0.98;;;16.40;99.90;;;;;;5032393;28;20120;-73
2023/07/20 07:07:35;;;;;;;3.50;0.90;;;16.50;99.90;;;;;;5032291;28;20041;-73
2023/07/20 07:10:04;;;;;;;4.20;0.80;;;16.50;99.90;;;;;;5032271;28;20124;-73
2023/07/20 07:12:30;;;;;;;7.75;1.10;;;16.60;99.90;;;;;;5032716;28;20072;-73
2023/07/20 07:14:55;;;;;;;3.58;0.82;;;16.70;99.90;;;;;;5032512;28;20399;-72
2023/07/20 07:17:21;;;;;;;2.92;0.80;;;16.70;99.90;;;;;;5032225;28;20087;-72
2023/07/20 07:19:47;;;;;;;4.50;0.70;;;16.80;99.90;;;;;;5031935;28;20128;-72
2023/07/20 07:22:13;;;;;;;2.83;0.73;;;16.90;99.90;;;;;;5032108;28;20040;-72
2023/07/20 07:24:41;;;;;;;2.75;0.70;;;16.90;99.90;;;;;;5015890;28;20087;-72
2023/07/20 07:27:09;;;;;;;2.53;0.63;;;17.00;99.90;;;;;;5032239;28;20064;-74
2023/07/20 07:29:34;;;;;;;5.93;0.88;;;16.90;99.90;;;;;;5031932;28;20041;-72
2023/07/20 07:32:01;;;;;;;3.47;0.90;;;16.90;99.90;;;;;;5032282;28;20124;-73
2023/07/20 07:34:27;;;;;;;5.53;0.70;;;17.00;99.90;;;;;;5033458;28;20083;-73
2023/07/20 07:36:52;;;;;;;5.10;0.80;;;17.00;99.90;;;;;;5031878;28;20037;-72
2023/07/20 07:39:18;;;;;;;3.38;0.90;;;17.10;99.90;;;;;;5031837;28;20040;-73
2023/07/20 07:41:43;;;;;;;5.07;0.95;;;17.10;99.90;;;;;;5031786;28;20049;-73
2023/07/20 07:44:09;;;;;;;2.45;0.70;;;17.20;99.90;;;;;;5031972;28;20033;-73
2023/07/20 07:46:35;;;;;;;4.38;0.88;;;17.30;99.90;;;;;;5031761;28;20041;-73
2023/07/20 07:49:00;;;;;;;3.00;0.65;;;17.50;99.90;;;;;;5031990;28;20039;-72
2023/07/20 07:51:27;;;;;;;3.45;0.65;;;17.70;99.90;;;;;;5031767;28;20068;-72
2023/07/20 07:53:53;;;;;;;2.15;0.50;;;17.80;99.90;;;;;;5031768;28;20056;-73
2023/07/20 07:56:22;;;;;;;1.98;0.75;;;18.00;99.90;;;;;;5032060;28;20049;-72
2023/07/20 07:58:48;;;;;;;2.75;0.60;;;18.00;99.90;;;;;;5031676;28;20563;-73
2023/07/20 08:01:14;;;;;;;4.38;0.77;;;18.10;99.90;;;;;;5015204;28;20409;-73
2023/07/20 08:03:40;;;;;;;4.15;0.68;;;18.20;99.80;;;;;;5031960;28;20038;-73
2023/07/20 08:06:05;;;;;;;2.92;0.80;;;18.30;99.50;;;;;;5031934;28;20440;-73
2023/07/20 08:08:32;;;;;;;3.70;0.60;;;18.30;99.20;;;;;;5031564;28;20474;-73
2023/07/20 08:10:58;;;;;;;3.08;0.60;;;18.50;99.50;;;;;;5031623;28;20083;-73
2023/07/20 08:13:24;;;;;;;4.00;0.75;;;18.70;99.50;;;;;;5033065;28;20041;-73
2023/07/20 08:15:53;;;;;;;3.45;0.80;;;18.90;99.10;;;;;;5035525;28;20042;-73
2023/07/20 08:18:19;;;;;;;3.28;0.68;;;19.00;98.00;;;;;;5035462;28;20045;-72
2023/07/20 08:20:46;;;;;;;2.97;0.63;;;19.00;96.80;;;;;;5018892;28;20049;-73
2023/07/20 08:23:12;;;;;;;1.92;0.70;;;19.10;96.70;;;;;;5035462;28;20043;-73
2023/07/20 08:25:39;;;;;;;2.17;0.60;;;19.00;95.80;;;;;;5035400;28;20037;-73
2023/07/20 08:28:05;;;;;;;2.33;0.60;;;18.90;95.90;;;;;;5035341;28;20045;-73
2023/07/20 08:30:43;;;;;;;2.20;0.60;;;19.00;96.20;;;;;;5035190;28;20056;-73
2023/07/20 08:33:20;;;;;;;1.40;0.40;;;19.20;94.90;;;;;;5035590;28;20045;-73
2023/07/20 08:35:46;;;;;;;4.72;1.00;;;19.30;94.20;;;;;;5035238;28;20046;-73
2023/07/20 08:38:12;;;;;;;3.17;0.75;;;19.40;94.30;;;;;;5035145;28;20045;-73
2023/07/20 08:40:56;;;;;;;1.98;0.50;;;19.60;94.30;;;;;;5034956;28;20041;-73
2023/07/20 08:43:26;;;;;;;2.55;0.50;;;19.70;93.10;;;;;;5035067;28;20047;-73
2023/07/20 08:45:55;;;;;;;2.58;0.70;;;19.70;92.50;;;;;;5035226;28;20736;-73
2023/07/20 08:48:21;;;;;;;4.75;0.90;;;19.80;92.50;;;;;;5018428;28;20037;-73
2023/07/20 08:50:51;;;;;;;2.70;0.70;;;19.90;92.50;;;;;;5034805;28;20077;-73
2023/07/20 08:53:17;;;;;;;2.28;0.60;;;19.90;92.50;;;;;;5034880;28;20045;-73
2023/07/20 08:55:45;;;;;;;3.35;0.75;;;20.00;92.10;;;;;;5034870;28;20052;-73
2023/07/20 08:58:14;;;;;;;2.08;0.60;;;20.30;92.30;;;;;;5035041;28;20037;-73
2023/07/20 09:00:41;;;;;;;3.35;0.50;;;20.40;91.90;;;;;;5034556;28;20124;-73
2023/07/20 09:03:08;;;;;;;2.30;0.70;;;20.50;91.20;;;;;;5034668;28;20048;-73
2023/07/20 09:05:35;;;;;;;3.72;1.02;;;20.40;90.30;;;;;;5034627;28;20422;-73
2023/07/20 09:08:03;;;;;;;3.22;0.60;;;20.40;90.10;;;;;;5034623;28;20163;-73
2023/07/20 09:10:29;;;;;;;1.13;0.50;;;20.50;89.70;;;;;;5034695;28;20037;-73
2023/07/20 09:12:55;;;;;;;2.70;0.80;;;20.70;89.20;;;;;;5034557;28;20433;-73
2023/07/20 09:15:21;;;;;;;5.22;0.80;;;20.80;86.60;;;;;;5034444;28;20153;-73
2023/07/20 09:17:51;;;;;;;3.75;0.77;;;20.70;85.00;;;;;;5034714;28;20103;-73
2023/07/20 09:20:18;;;;;;;5.18;0.70;;;20.80;84.40;;;;;;5034227;28;20041;-73
2023/07/20 09:22:44;;;;;;;3.58;0.77;;;21.00;87.60;;;;;;5034563;28;20084;-73
2023/07/20 09:25:15;;;;;;;6.03;1.23;;;21.10;86.30;;;;;;5033184;28;20473;-73
2023/07/20 09:27:45;;;;;;;4.28;0.80;;;21.20;84.40;;;;;;5034163;28;20387;-73
2023/07/20 09:30:13;;;;;;;3.85;1.10;;;21.10;83.90;;;;;;5034159;28;20129;-73
2023/07/20 09:32:43;;;;;;;4.50;0.88;;;21.00;85.10;;;;;;5034122;28;20041;-73
2023/07/20 09:35:22;;;;;;;5.95;1.17;;;20.90;85.10;;;;;;5035230;28;20041;-73
2023/07/20 09:37:54;;;;;;;4.53;1.05;;;20.90;84.30;;;;;;5034329;28;20045;-73
2023/07/20 09:40:21;;;;;;;3.88;1.10;;;20.90;85.30;;;;;;5034120;28;20542;-73
2023/07/20 09:42:47;;;;;;;3.33;1.17;;;21.00;86.20;;;;;;5033946;28;20406;-73
2023/07/20 09:45:14;;;;;;;4.05;1.20;;;21.20;85.60;;;;;;5033896;28;20493;-73
2023/07/20 09:47:40;;;;;;;5.28;1.00;;;21.40;83.90;;;;;;5017621;28;20041;-73
2023/07/20 09:50:10;;;;;;;2.28;0.93;;;21.50;83.20;;;;;;5033912;28;20064;-73
2023/07/20 09:52:45;;;;;;;3.45;1.27;;;21.70;83.10;;;;;;5033786;28;20033;-73
2023/07/20 09:55:13;;;;;;;4.10;0.80;;;22.00;81.50;;;;;;5033787;28;20037;-73
2023/07/20 09:57:38;;;;;;;2.60;1.08;;;22.20;80.60;;;;;;5033666;28;20494;-73
2023/07/20 10:00:12;;;;;;;4.38;1.17;;;22.20;79.30;;;;;;5033523;28;20037;-73
2023/07/20 10:02:43;;;;;;;3.10;0.80;;;22.30;77.80;;;;;;5033641;28;20124;-73
2023/07/20 10:05:12;;;;;;;2.90;0.80;;;22.40;74.80;;;;;;5033581;28;20033;-74
2023/07/20 10:07:45;;;;;;;1.33;0.75;;;22.60;72.00;;;;;;5033481;28;20494;-74
2023/07/20 10:10:11;;;;;;;3.47;0.90;;;22.80;72.40;;;;;;5016927;28;20037;-74
2023/07/20 10:12:39;;;;;;;3.90;0.88;;;22.90;69.60;;;;;;5033399;28;20128;-74
2023/07/20 10:15:14;;;;;;;2.70;1.10;;;23.00;69.60;;;;;;5033362;28;20043;-74
2023/07/20 10:18:03;;;;;;;2.95;0.88;;;23.00;70.30;;;;;;5034354;28;20037;-74
2023/07/20 10:20:31;;;;;;;2.22;1.20;;;22.90;67.40;;;;;;5033103;28;20046;-73
2023/07/20 10:22:57;;;;;;;4.18;0.88;;;23.00;69.70;;;;;;5033447;28;20045;-72
2023/07/20 10:25:23;;;;;;;2.15;1.00;;;23.20;69.30;;;;;;5017016;28;20372;-73
2023/07/20 10:27:49;;;;;;;3.47;1.05;;;23.30;67.80;;;;;;5033040;28;20048;-72
2023/07/20 10:30:16;;;;;;;2.80;1.02;;;23.40;64.60;;;;;;5032990;28;20045;-72
2023/07/20 10:32:43;;;;;;;4.78;1.10;;;23.40;64.70;;;;;;5033052;28;20049;-72
2023/07/20 10:35:14;;;;;;;2.55;1.30;;;23.50;64.70;;;;;;5017055;28;20045;-72
2023/07/20 10:37:49;;;;;;;1.70;0.70;;;23.30;63.10;;;;;;5032918;28;20099;-72
2023/07/20 10:40:31;;;;;;;1.67;0.80;;;23.40;62.10;;;;;;5032692;28;20502;-72
2023/07/20 10:43:08;;;;;;;4.35;1.10;;;23.60;63.60;;;;;;5016331;28;20045;-73
2023/07/20 10:45:50;;;;;;;2.33;1.00;;;23.80;62.40;;;;;;5032812;28;20033;-73
2023/07/20 10:48:24;;;;;;;3.35;1.20;;;23.80;60.50;;;;;;5033033;28;20044;-73
2023/07/20 10:51:10;;;;;;;2.83;1.10;;;23.90;63.70;;;;;;5016188;28;20056;-73
2023/07/20 10:53:35;;;;;;;2.85;1.00;;;24.00;62.20;;;;;;5032588;28;20049;-73
2023/07/20 10:56:18;;;;;;;2.95;0.93;;;24.00;62.90;;;;;;5032844;28;20059;-73
2023/07/20 10:58:44;;;;;;;2.33;1.10;;;24.10;62.80;;;;;;5032766;28;20090;-72
2023/07/20 11:01:14;;;;;;;3.90;1.20;;;24.30;61.40;;;;;;5032390;28;20462;-72
2023/07/20 11:03:40;;;;;;;4.90;1.58;;;24.10;61.60;;;;;;5033635;28;20046;-72
2023/07/20 11:06:31;;;;;;;4.85;1.58;;;23.90;63.60;;;;;;5032807;28;20041;-72
2023/07/20 11:09:07;;;;;;;4.32;1.33;;;23.70;64.20;;;;;;5032730;28;20051;-72
2023/07/20 11:11:36;;;;;;;3.70;1.27;;;23.60;65.50;;;;;;5032276;28;20406;-72
2023/07/20 11:14:10;;;;;;;3.95;1.40;;;23.60;66.60;;;;;;5032454;28;20672;-72
2023/07/20 11:16:41;;;;;;;2.65;1.23;;;23.80;65.30;;;;;;5032177;28;20127;-72
2023/07/20 11:19:17;;;;;;;4.05;1.50;;;24.00;65.90;;;;;;5032106;28;20052;-72
2023/07/20 11:21:45;;;;;;;2.25;0.90;;;24.30;63.30;;;;;;5032052;28;20081;-73
2023/07/20 11:24:11;;;;;;;1.70;1.00;;;24.30;62.40;;;;;;5015608;28;20116;-73
2023/07/20 11:26:45;;;;;;;3.08;1.27;;;24.30;60.90;;;;;;5032079;28;20076;-74
2023/07/20 11:29:11;;;;;;;3.88;1.13;;;24.20;59.30;;;;;;5032053;28;20495;-73
2023/07/20 11:31:41;;;;;;;2.67;1.20;;;23.90;60.90;;;;;;5032053;28;20064;-73
2023/07/20 11:34:27;;;;;;;2.92;1.20;;;23.80;60.80;;;;;;5032020;28;20034;-73
2023/07/20 11:36:52;;;;;;;2.53;1.10;;;23.60;62.00;;;;;;5032274;28;20120;-73
2023/07/20 11:39:19;;;;;;;3.28;1.15;;;23.30;62.80;;;;;;5031869;28;20148;-73
2023/07/20 11:41:50;;;;;;;3.30;1.10;;;23.30;61.90;;;;;;5031789;28;20046;-73
2023/07/20 11:44:17;;;;;;;3.78;1.20;;;23.40;61.40;;;;;;5031854;28;20095;-73
2023/07/20 11:46:46;;;;;;;3.92;1.40;;;23.50;62.10;;;;;;5031824;28;20091;-73
2023/07/20 11:49:12;;;;;;;2.95;1.30;;;23.50;62.60;;;;;;5030972;28;20045;-73
2023/07/20 11:51:40;;;;;;;4.38;1.50;;;23.70;62.80;;;;;;5032066;28;20047;-73
2023/07/20 11:54:07;;;;;;;3.08;1.50;;;23.60;62.80;;;;;;5032008;28;20037;-74
2023/07/20 11:56:33;;;;;;;4.40;1.40;;;23.50;62.40;;;;;;5016358;28;20102;-74
2023/07/20 11:59:01;;;;;;;4.40;1.38;;;23.40;61.50;;;;;;5031649;28;20437;-74
2023/07/20 12:01:35;;;;;;;3.60;1.40;;;23.10;62.40;;;;;;5031581;28;20045;-74
2023/07/20 12:04:02;;;;;;;4.32;1.40;;;23.00;63.70;;;;;;5031977;28;20049;-73
2023/07/20 12:06:28;;;;;;;2.08;1.20;;;22.90;63.70;;;;;;5031955;28;20041;-74
2023/07/20 12:08:58;;;;;;;3.08;1.55;;;22.80;64.20;;;;;;5031852;28;20397;-73
2023/07/20 12:11:31;;;;;;;4.13;1.58;;;22.70;64.60;;;;;;5031573;28;20450;-74
2023/07/20 12:13:57;;;;;;;;;;;22.60;64.20;;;;;;5032277;28;20049;-74
2023/07/20 12:16:27;;;;;;;4.38;1.40;;;22.50;64.20;;;;;;5031559;28;19921;-73
2023/07/20 12:19:07;;;;;;;2.90;1.23;;;22.50;65.30;;;;;;5015039;28;20053;-74
2023/07/20 12:21:36;;;;;;;2.80;1.30;;;22.70;65.00;;;;;;5031503;28;20128;-74
2023/07/20 12:24:03;;;;;;;3.13;1.30;;;22.80;64.10;;;;;;5031536;28;20120;-74
2023/07/20 12:26:33;;;;;;;5.03;1.50;;;23.10;64.20;;;;;;5031723;28;20486;-74
2023/07/20 12:29:00;;;;;;;2.63;1.20;;;23.30;63.50;;;;;;5031411;28;20033;-74
2023/07/20 12:31:27;;;;;;;4.90;1.35;;;23.30;62.70;;;;;;5031462;28;20041;-74
2023/07/20 12:33:55;;;;;;;2.53;1.20;;;23.10;62.60;;;;;;5015001;28;20049;-74
2023/07/20 12:36:20;;;;;;;5.07;1.00;;;23.00;64.20;;;;;;5031447;28;20095;-74
2023/07/20 12:38:46;;;;;;;3.70;0.93;;;22.90;63.60;;;;;;5031219;28;20124;-74
2023/07/20 12:41:13;;;;;;;4.45;1.40;;;22.90;63.30;;;;;;5031264;28;20049;-74
2023/07/20 12:43:40;;;;;;;7.35;1.17;;;23.00;64.90;;;;;;5031329;28;20053;-74
2023/07/20 12:46:05;;;;;;;4.40;1.50;;;23.20;64.20;;;;;;5031547;28;20037;-74
2023/07/20 12:48:31;;;;;;;3.30;1.20;;;23.40;64.30;;;;;;5031178;28;20038;-74
2023/07/20 12:50:57;;;;;;;3.63;1.10;;;23.40;62.60;;;;;;5031465;28;20044;-74